createdAt,value
2018-03-12T00:00:06.043Z,6.60
2018-03-12T00:01:06.519Z,6.50
2018-03-12T00:03:02.464Z,6.90
2018-03-12T00:04:02.464Z,7.00
2018-03-12T00:05:57.886Z,7.00
2018-03-12T00:08:13.853Z,7.80
2018-03-12T00:09:13.792Z,6.60
2018-03-12T00:11:10.249Z,6.90
2018-03-12T00:12:09.723Z,6.20
2018-03-12T00:14:05.666Z,6.90
2018-03-12T00:15:05.680Z,6.90
2018-03-12T00:17:02.641Z,7.20
2018-03-12T00:18:01.644Z,7.40
2018-03-12T00:19:58.123Z,7.80
2018-03-12T00:20:57.641Z,7.20
2018-03-12T00:22:54.554Z,6.70
2018-03-12T00:23:53.534Z,7.30
2018-03-12T00:25:49.518Z,6.60
2018-03-12T00:26:49.459Z,7.40
2018-03-12T00:28:45.394Z,6.30
2018-03-12T00:29:45.936Z,7.00
2018-03-12T00:31:41.346Z,6.90
2018-03-12T00:32:41.313Z,6.60
2018-03-12T00:34:39.237Z,6.40
2018-03-12T00:35:39.256Z,6.40
2018-03-12T00:37:35.721Z,6.80
2018-03-12T00:38:35.177Z,6.80
2018-03-12T00:40:31.670Z,6.80
2018-03-12T00:41:31.632Z,7.00
2018-03-12T00:43:27.093Z,7.30
2018-03-12T00:44:27.085Z,7.90
2018-03-12T00:46:23.056Z,6.90
2018-03-12T00:47:23.006Z,6.90
2018-03-12T00:49:18.975Z,6.50
2018-03-12T00:50:18.965Z,6.40
2018-03-12T00:52:14.895Z,9.40
2018-03-12T00:53:15.838Z,6.40
2018-03-12T00:55:11.844Z,6.30
2018-03-12T00:56:10.840Z,6.40
2018-03-12T00:58:06.782Z,7.60
2018-03-12T00:59:06.778Z,6.90
2018-03-12T01:01:02.751Z,7.60
2018-03-12T01:02:02.771Z,6.80
2018-03-12T01:03:59.216Z,7.10
2018-03-12T01:04:59.684Z,6.70
2018-03-12T01:06:55.169Z,7.40
2018-03-12T01:07:54.619Z,8.60
2018-03-12T01:09:50.592Z,8.10
2018-03-12T01:10:50.585Z,7.80
2018-03-12T01:12:46.505Z,12.20
2018-03-12T01:13:46.524Z,10.40
2018-03-12T01:15:42.436Z,9.20
2018-03-12T01:16:42.430Z,8.80
2018-03-12T01:18:38.888Z,9.50
2018-03-12T01:19:38.334Z,10.50
2018-03-12T01:21:36.228Z,11.20
2018-03-12T01:22:34.277Z,11.20
2018-03-12T01:24:30.750Z,9.70
2018-03-12T01:25:30.260Z,9.40
2018-03-12T01:27:26.711Z,7.90
2018-03-12T01:28:27.210Z,8.70
2018-03-12T01:30:24.314Z,8.70
2018-03-12T01:31:24.317Z,9.70
2018-03-12T01:33:20.273Z,10.20
2018-03-12T01:34:20.252Z,9.80
2018-03-12T01:36:16.193Z,10.80
2018-03-12T01:37:16.202Z,13.70
2018-03-12T01:39:12.155Z,13.70
2018-03-12T01:40:12.108Z,12.10
2018-03-12T01:42:09.059Z,11.10
2018-03-12T01:43:08.549Z,9.70
2018-03-12T01:45:04.494Z,9.80
2018-03-12T01:46:03.986Z,9.20
2018-03-12T01:47:59.940Z,10.60
2018-03-12T01:48:59.923Z,11.00
2018-03-12T01:50:56.383Z,12.00
2018-03-12T01:51:55.895Z,10.60
2018-03-12T01:53:52.838Z,7.60
2018-03-12T01:54:51.854Z,7.80
2018-03-12T01:56:47.771Z,8.00
2018-03-12T01:57:48.296Z,8.00
2018-03-12T01:59:43.745Z,7.80
2018-03-12T02:00:43.716Z,7.70
2018-03-12T02:02:40.699Z,7.40
2018-03-12T02:03:39.690Z,8.60
2018-03-12T02:05:38.611Z,8.20
2018-03-12T02:06:40.078Z,7.40
2018-03-12T02:08:37.064Z,8.10
2018-03-12T02:09:36.619Z,8.40
2018-03-12T02:11:33.086Z,8.70
2018-03-12T02:12:32.552Z,8.20
2018-03-12T02:14:28.591Z,9.10
2018-03-12T02:15:28.576Z,8.80
2018-03-12T02:17:26.015Z,9.10
2018-03-12T02:18:25.015Z,8.70
2018-03-12T02:20:22.614Z,9.00
2018-03-12T02:21:22.553Z,9.30
2018-03-12T02:23:19.048Z,8.80
2018-03-12T02:24:18.504Z,8.90
2018-03-12T02:26:14.478Z,8.70
2018-03-12T02:27:14.453Z,9.30
2018-03-12T02:29:11.436Z,8.70
2018-03-12T02:30:10.368Z,9.90
2018-03-12T02:32:06.286Z,10.10
2018-03-12T02:33:06.296Z,9.40
2018-03-12T02:35:02.252Z,9.50
2018-03-12T02:36:02.231Z,9.10
2018-03-12T02:37:58.192Z,8.40
2018-03-12T02:38:59.683Z,9.60
2018-03-12T02:40:54.138Z,9.80
2018-03-12T02:41:54.092Z,9.40
2018-03-12T02:43:50.082Z,8.90
2018-03-12T02:44:50.578Z,9.50
2018-03-12T02:46:47.523Z,9.40
2018-03-12T02:47:45.998Z,9.80
2018-03-12T02:49:41.928Z,9.10
2018-03-12T02:50:41.922Z,9.10
2018-03-12T02:52:37.901Z,9.50
2018-03-12T02:53:37.848Z,9.40
2018-03-12T02:55:34.811Z,9.20
2018-03-12T02:56:33.802Z,9.30
2018-03-12T02:58:33.666Z,9.40
2018-03-12T02:59:31.799Z,8.80
2018-03-12T03:01:28.758Z,8.40
2018-03-12T03:02:27.736Z,9.10
2018-03-12T03:04:23.672Z,9.50
2018-03-12T03:05:23.691Z,9.70
2018-03-12T03:07:19.645Z,10.80
2018-03-12T03:08:19.636Z,11.50
2018-03-12T03:10:16.080Z,11.00
2018-03-12T03:11:15.583Z,9.50
2018-03-12T03:13:11.496Z,9.50
2018-03-12T03:14:11.517Z,9.60
2018-03-12T03:16:07.486Z,10.00
2018-03-12T03:17:07.438Z,9.00
2018-03-12T03:19:03.908Z,9.30
2018-03-12T03:20:03.350Z,8.90
2018-03-12T03:21:59.285Z,8.80
2018-03-12T03:22:59.285Z,8.90
2018-03-12T03:24:55.265Z,8.80
2018-03-12T03:25:55.223Z,9.60
2018-03-12T03:27:51.186Z,9.30
2018-03-12T03:28:52.677Z,9.50
2018-03-12T03:30:47.098Z,9.30
2018-03-12T03:31:47.107Z,8.80
2018-03-12T03:33:43.571Z,8.60
2018-03-12T03:35:59.011Z,9.30
2018-03-12T03:36:59.019Z,9.10
2018-03-12T03:38:56.463Z,8.80
2018-03-12T03:39:54.914Z,9.00
2018-03-12T03:41:53.389Z,9.70
2018-03-12T03:42:53.867Z,10.30
2018-03-12T03:44:50.950Z,10.40
2018-03-12T03:45:50.922Z,9.70
2018-03-12T03:47:46.872Z,9.30
2018-03-12T03:48:46.861Z,9.80
2018-03-12T03:50:44.324Z,9.60
2018-03-12T03:51:42.806Z,9.50
2018-03-12T03:53:38.794Z,10.20
2018-03-12T03:54:39.752Z,9.80
2018-03-12T03:56:37.744Z,9.70
2018-03-12T03:57:36.690Z,9.90
2018-03-12T03:59:33.164Z,9.40
2018-03-12T04:00:32.651Z,9.30
2018-03-12T04:02:29.143Z,9.40
2018-03-12T04:03:28.570Z,9.90
2018-03-12T04:05:27.038Z,9.70
2018-03-12T04:06:26.533Z,9.20
2018-03-12T04:08:23.003Z,9.00
2018-03-12T04:09:22.981Z,9.10
2018-03-12T04:11:19.874Z,10.10
2018-03-12T04:12:18.886Z,10.50
2018-03-12T04:14:14.333Z,9.10
2018-03-12T04:15:14.296Z,9.20
2018-03-12T04:17:10.778Z,9.90
2018-03-12T04:18:10.254Z,9.40
2018-03-12T04:20:08.730Z,9.00
2018-03-12T04:21:08.326Z,9.60
2018-03-12T04:23:05.278Z,9.30
2018-03-12T04:24:04.255Z,9.60
2018-03-12T04:26:00.752Z,9.10
2018-03-12T04:27:00.207Z,8.70
2018-03-12T04:28:56.106Z,9.40
2018-03-12T04:29:56.104Z,9.60
2018-03-12T04:31:52.081Z,9.10
2018-03-12T04:32:52.553Z,9.20
2018-03-12T04:34:48.014Z,9.80
2018-03-12T04:35:47.994Z,10.60
2018-03-12T04:37:44.473Z,9.50
2018-03-12T04:38:43.914Z,9.10
2018-03-12T04:40:39.878Z,10.30
2018-03-12T04:41:39.874Z,10.40
2018-03-12T04:43:37.810Z,8.90
2018-03-12T04:44:37.806Z,10.40
2018-03-12T04:46:35.865Z,10.20
2018-03-12T04:47:35.860Z,10.50
2018-03-12T04:49:35.314Z,9.60
2018-03-12T04:50:33.899Z,10.00
2018-03-12T04:52:29.831Z,11.90
2018-03-12T04:53:29.836Z,11.50
2018-03-12T04:55:26.313Z,11.60
2018-03-12T04:56:26.294Z,11.40
2018-03-12T04:58:22.263Z,13.00
2018-03-12T04:59:22.232Z,13.40
2018-03-12T05:01:18.146Z,12.40
2018-03-12T05:02:18.136Z,12.30
2018-03-12T05:04:13.604Z,11.70
2018-03-12T05:05:13.589Z,11.40
2018-03-12T05:07:10.533Z,10.10
2018-03-12T05:08:09.514Z,10.20
2018-03-12T05:10:05.448Z,10.30
2018-03-12T05:11:05.438Z,10.60
2018-03-12T05:13:03.904Z,11.30
2018-03-12T05:14:03.395Z,11.00
2018-03-12T05:15:59.864Z,11.40
2018-03-12T05:17:00.337Z,10.50
2018-03-12T05:18:55.274Z,11.00
2018-03-12T05:19:55.250Z,11.40
2018-03-12T05:21:52.188Z,10.50
2018-03-12T05:22:52.700Z,10.60
2018-03-12T05:24:48.161Z,11.20
2018-03-12T05:25:48.131Z,13.70
2018-03-12T05:27:44.087Z,12.80
2018-03-12T05:28:44.095Z,15.70
2018-03-12T05:30:40.062Z,13.20
2018-03-12T05:31:40.545Z,12.70
2018-03-12T05:33:36.005Z,15.50
2018-03-12T05:34:35.985Z,13.30
2018-03-12T05:36:32.926Z,12.00
2018-03-12T05:37:31.922Z,11.50
2018-03-12T05:39:29.361Z,12.60
2018-03-12T05:40:27.875Z,12.00
2018-03-12T05:42:24.319Z,14.50
2018-03-12T05:43:23.774Z,12.50
2018-03-12T05:45:19.763Z,11.60
2018-03-12T05:46:19.736Z,12.40
2018-03-12T05:48:16.713Z,11.40
2018-03-12T05:49:16.182Z,14.60
2018-03-12T05:51:11.609Z,13.10
2018-03-12T05:52:11.597Z,13.40
2018-03-12T05:54:10.553Z,13.00
2018-03-12T05:55:09.675Z,12.00
2018-03-12T05:57:05.641Z,12.30
2018-03-12T05:58:05.605Z,12.60
2018-03-12T06:00:03.663Z,13.70
2018-03-12T06:01:05.561Z,12.30
2018-03-12T06:02:59.654Z,12.50
2018-03-12T06:03:59.620Z,12.40
2018-03-12T06:05:58.086Z,12.60
2018-03-12T06:06:57.684Z,13.20
2018-03-12T06:08:54.135Z,12.70
2018-03-12T06:09:53.589Z,15.20
2018-03-12T06:11:49.555Z,12.10
2018-03-12T06:12:49.548Z,12.90
2018-03-12T06:14:46.003Z,13.70
2018-03-12T06:15:45.500Z,14.50
2018-03-12T06:17:41.481Z,14.30
2018-03-12T06:18:41.945Z,15.00
2018-03-12T06:20:38.410Z,11.60
2018-03-12T06:21:37.376Z,13.20
2018-03-12T06:23:33.354Z,11.10
2018-03-12T06:24:34.332Z,14.30
2018-03-12T06:26:31.314Z,16.00
2018-03-12T06:27:31.297Z,12.40
2018-03-12T06:29:29.755Z,12.00
2018-03-12T06:30:30.242Z,11.60
2018-03-12T06:32:25.778Z,13.60
2018-03-12T06:33:25.257Z,14.50
2018-03-12T06:35:19.729Z,13.80
2018-03-12T06:36:21.245Z,12.30
2018-03-12T06:38:15.677Z,12.80
2018-03-12T06:39:15.654Z,12.10
2018-03-12T06:41:12.108Z,13.50
2018-03-12T06:42:11.593Z,14.90
2018-03-12T06:44:09.554Z,12.20
2018-03-12T06:45:09.542Z,13.80
2018-03-12T06:47:05.974Z,16.20
2018-03-12T06:48:05.485Z,13.10
2018-03-12T06:50:03.420Z,18.00
2018-03-12T06:51:03.476Z,15.10
2018-03-12T06:52:59.865Z,15.40
2018-03-12T06:53:59.341Z,16.50
2018-03-12T06:55:55.310Z,12.90
2018-03-12T06:56:55.291Z,16.90
2018-03-12T06:58:53.337Z,18.10
2018-03-12T06:59:53.342Z,16.50
2018-03-12T07:01:49.319Z,19.00
2018-03-12T07:02:49.275Z,14.60
2018-03-12T07:04:45.258Z,16.30
2018-03-12T07:05:46.744Z,18.90
2018-03-12T07:07:41.662Z,14.90
2018-03-12T07:08:41.150Z,15.20
2018-03-12T07:10:38.124Z,15.00
2018-03-12T07:11:37.604Z,17.90
2018-03-12T07:13:33.035Z,15.60
2018-03-12T07:14:33.064Z,15.10
2018-03-12T07:16:28.995Z,17.80
2018-03-12T07:17:29.494Z,16.50
2018-03-12T07:19:24.908Z,17.30
2018-03-12T07:23:16.008Z,15.90
2018-03-12T07:24:15.489Z,15.80
2018-03-12T07:26:11.936Z,16.10
2018-03-12T07:27:11.407Z,14.80
2018-03-12T07:29:07.372Z,17.30
2018-03-12T07:30:07.322Z,16.90
2018-03-12T07:32:03.287Z,14.90
2018-03-12T07:33:03.286Z,13.60
2018-03-12T07:35:00.224Z,14.90
2018-03-12T07:36:00.745Z,16.90
2018-03-12T07:37:57.178Z,14.60
2018-03-12T07:38:56.185Z,15.90
2018-03-12T07:40:52.139Z,14.40
2018-03-12T07:41:52.136Z,15.80
2018-03-12T07:43:49.592Z,15.60
2018-03-12T07:44:48.049Z,15.20
2018-03-12T07:46:44.515Z,15.40
2018-03-12T07:47:43.995Z,15.90
2018-03-12T07:49:40.461Z,17.70
2018-03-12T07:50:40.471Z,19.90
2018-03-12T07:52:35.919Z,15.30
2018-03-12T07:53:35.875Z,16.50
2018-03-12T07:55:32.386Z,27.30
2018-03-12T07:56:31.824Z,19.10
2018-03-12T07:58:27.740Z,14.60
2018-03-12T07:59:27.729Z,15.40
2018-03-12T08:01:24.188Z,15.70
2018-03-12T08:02:24.194Z,13.30
2018-03-12T08:04:19.650Z,16.40
2018-03-12T08:05:19.603Z,16.90
2018-03-12T08:07:17.553Z,18.50
2018-03-12T08:08:17.548Z,15.40
2018-03-12T08:10:14.495Z,13.40
2018-03-12T08:11:13.482Z,13.90
2018-03-12T08:13:09.451Z,15.20
2018-03-12T08:14:09.458Z,13.70
2018-03-12T08:16:06.884Z,13.80
2018-03-12T08:17:05.914Z,12.40
2018-03-12T08:19:02.363Z,14.50
2018-03-12T08:20:02.833Z,15.50
2018-03-12T08:21:57.220Z,13.10
2018-03-12T08:22:57.744Z,13.40
2018-03-12T08:24:53.196Z,14.30
2018-03-12T08:25:53.175Z,14.20
2018-03-12T08:27:50.127Z,16.60
2018-03-12T08:28:49.150Z,15.60
2018-03-12T08:30:47.101Z,13.20
2018-03-12T08:31:48.579Z,14.10
2018-03-12T08:33:45.544Z,14.20
2018-03-12T08:34:45.019Z,14.10
2018-03-12T08:36:41.465Z,17.60
2018-03-12T08:37:40.955Z,15.70
2018-03-12T08:39:39.439Z,15.80
2018-03-12T08:40:39.028Z,14.10
2018-03-12T08:42:37.086Z,13.30
2018-03-12T08:43:37.076Z,13.50
2018-03-12T08:45:33.038Z,13.20
2018-03-12T08:46:33.019Z,14.20
2018-03-12T08:48:29.977Z,13.40
2018-03-12T08:49:28.938Z,13.90
2018-03-12T08:51:24.890Z,13.10
2018-03-12T08:52:24.877Z,14.40
2018-03-12T08:54:23.830Z,12.40
2018-03-12T08:55:22.933Z,13.10
2018-03-12T08:57:21.879Z,13.70
2018-03-12T08:58:20.892Z,16.00
2018-03-12T09:00:18.880Z,12.80
2018-03-12T09:01:18.827Z,12.90
2018-03-12T09:03:15.272Z,23.00
2018-03-12T09:04:14.784Z,13.40
2018-03-12T09:06:10.741Z,14.60
2018-03-12T09:07:10.734Z,12.20
2018-03-12T09:09:06.632Z,16.20
2018-03-12T09:10:07.265Z,12.40
2018-03-12T09:12:02.597Z,12.70
2018-03-12T09:13:02.595Z,12.50
2018-03-12T09:15:00.034Z,11.90
2018-03-12T09:15:58.561Z,10.80
2018-03-12T09:17:54.511Z,11.50
2018-03-12T09:18:54.478Z,12.10
2018-03-12T09:20:53.946Z,12.20
2018-03-12T09:21:52.445Z,12.10
2018-03-12T09:23:50.395Z,13.70
2018-03-12T09:24:50.396Z,12.50
2018-03-12T09:26:48.300Z,10.50
2018-03-12T09:27:48.306Z,11.70
2018-03-12T09:29:46.780Z,10.90
2018-03-12T09:30:46.371Z,18.10
2018-03-12T09:32:44.326Z,10.80
2018-03-12T09:33:44.830Z,10.40
2018-03-12T09:35:43.287Z,17.90
2018-03-12T09:36:42.265Z,12.30
2018-03-12T09:38:40.158Z,14.10
2018-03-12T09:39:40.713Z,12.20
2018-03-12T09:41:39.614Z,10.60
2018-03-12T09:42:38.104Z,11.10
2018-03-12T09:44:36.566Z,13.40
2018-03-12T09:45:36.157Z,12.90
2018-03-12T09:47:34.684Z,12.00
2018-03-12T09:48:35.138Z,11.60
2018-03-12T09:50:32.767Z,11.50
2018-03-12T09:51:32.347Z,11.90
2018-03-12T09:53:30.256Z,13.30
2018-03-12T09:54:30.798Z,12.20
2018-03-12T09:56:29.727Z,9.30
2018-03-12T09:57:29.228Z,8.40
2018-03-12T09:59:25.328Z,8.50
2018-03-12T10:00:24.831Z,8.60
2018-03-12T10:02:20.251Z,8.70
2018-03-12T10:03:20.257Z,9.50
2018-03-12T10:05:16.200Z,7.90
2018-03-12T10:06:16.197Z,8.50
2018-03-12T10:08:12.168Z,8.50
2018-03-12T10:09:12.666Z,8.80
2018-03-12T10:11:11.578Z,10.00
2018-03-12T10:12:10.185Z,9.90
2018-03-12T10:14:06.166Z,8.60
2018-03-12T10:15:06.114Z,7.90
2018-03-12T10:17:02.064Z,8.00
2018-03-12T10:18:02.064Z,10.30
2018-03-12T10:19:58.054Z,7.80
2018-03-12T10:20:58.034Z,7.00
2018-03-12T10:22:54.489Z,7.80
2018-03-12T10:23:54.506Z,8.70
2018-03-12T10:25:52.960Z,6.60
2018-03-12T10:26:52.060Z,7.70
2018-03-12T10:28:47.965Z,8.40
2018-03-12T10:29:47.975Z,8.20
2018-03-12T10:31:46.939Z,7.30
2018-03-12T10:32:45.930Z,7.90
2018-03-12T10:34:43.994Z,8.30
2018-03-12T10:35:44.873Z,7.50
2018-03-12T10:37:41.953Z,6.50
2018-03-12T10:38:41.961Z,8.20
2018-03-12T10:40:37.892Z,8.20
2018-03-12T10:41:37.915Z,8.40
2018-03-12T10:43:36.362Z,7.70
2018-03-12T10:44:35.858Z,7.50
2018-03-12T10:46:34.373Z,6.80
2018-03-12T10:47:35.750Z,7.70
2018-03-12T10:49:32.392Z,6.90
2018-03-12T10:50:31.900Z,9.50
2018-03-12T10:52:28.884Z,6.40
2018-03-12T10:54:43.801Z,6.00
2018-03-12T10:55:43.800Z,6.50
2018-03-12T10:57:39.741Z,6.50
2018-03-12T10:58:39.750Z,7.40
2018-03-12T11:00:36.224Z,5.80
2018-03-12T11:01:36.223Z,5.70
2018-03-12T11:03:31.672Z,5.80
2018-03-12T11:04:32.170Z,5.80
2018-03-12T11:06:27.577Z,6.40
2018-03-12T11:07:27.606Z,6.30
2018-03-12T11:09:26.074Z,6.40
2018-03-12T11:10:25.665Z,7.00
2018-03-12T11:12:24.120Z,5.70
2018-03-12T11:13:23.609Z,4.90
2018-03-12T11:15:21.616Z,5.00
2018-03-12T11:16:22.071Z,7.20
2018-03-12T11:18:19.540Z,7.00
2018-03-12T11:19:19.496Z,4.10
2018-03-12T11:21:15.943Z,2.90
2018-03-12T11:22:16.374Z,4.40
2018-03-12T11:24:13.445Z,3.40
2018-03-12T11:25:13.407Z,4.30
2018-03-12T11:27:12.879Z,3.50
2018-03-12T11:28:11.382Z,5.50
2018-03-12T11:30:07.363Z,5.70
2018-03-12T11:31:07.326Z,3.50
2018-03-12T11:33:03.327Z,2.90
2018-03-12T11:34:03.801Z,4.20
2018-03-12T11:36:00.242Z,3.00
2018-03-12T11:36:59.258Z,2.60
2018-03-12T11:38:56.223Z,3.80
2018-03-12T11:39:55.220Z,2.80
2018-03-12T11:41:51.173Z,2.00
2018-03-12T11:42:52.143Z,3.10
2018-03-12T11:44:47.145Z,4.30
2018-03-12T11:45:47.135Z,3.20
2018-03-12T11:47:45.093Z,4.10
2018-03-12T11:48:45.098Z,5.50
2018-03-12T11:50:44.993Z,2.70
2018-03-12T11:51:43.557Z,5.90
2018-03-12T11:53:39.498Z,4.50
2018-03-12T11:54:38.993Z,2.80
2018-03-12T11:56:34.947Z,2.90
2018-03-12T11:57:35.443Z,3.80
2018-03-12T11:59:30.918Z,3.10
2018-03-12T12:00:31.406Z,3.00
2018-03-12T12:02:28.878Z,3.50
2018-03-12T12:03:29.874Z,3.40
2018-03-12T12:05:27.823Z,4.60
2018-03-12T12:06:27.364Z,2.70
2018-03-12T12:08:24.753Z,3.50
2018-03-12T12:09:24.749Z,4.20
2018-03-12T12:11:23.226Z,5.40
2018-03-12T12:12:23.740Z,6.30
2018-03-12T12:14:20.767Z,2.90
2018-03-12T12:15:21.764Z,3.50
2018-03-12T12:17:20.249Z,3.50
2018-03-12T12:18:18.842Z,5.70
2018-03-12T12:20:17.801Z,5.60
2018-03-12T12:21:17.310Z,5.30
2018-03-12T12:23:12.774Z,3.70
2018-03-12T12:24:13.758Z,3.80
2018-03-12T12:26:09.243Z,4.30
2018-03-12T12:27:08.746Z,5.30
2018-03-12T12:29:06.744Z,8.90
2018-03-12T12:30:06.696Z,8.50
2018-03-12T12:32:04.627Z,3.30
2018-03-12T12:33:06.153Z,2.90
2018-03-12T12:35:00.613Z,7.70
2018-03-12T12:36:00.595Z,4.80
2018-03-12T12:37:58.522Z,6.10
2018-03-12T12:38:59.069Z,3.60
2018-03-12T12:40:55.017Z,6.40
2018-03-12T12:43:32.598Z,3.70
2018-03-12T12:44:32.402Z,4.70
2018-03-12T12:46:45.858Z,4.50
2018-03-12T12:47:46.443Z,3.40
2018-03-12T12:49:47.736Z,6.60
2018-03-12T12:50:46.172Z,4.30
2018-03-12T12:52:46.662Z,2.60
2018-03-12T12:53:47.055Z,3.00
2018-03-12T12:55:48.073Z,2.30
2018-03-12T12:56:54.099Z,4.30
2018-03-12T12:58:49.121Z,6.20
2018-03-12T12:59:49.212Z,6.70
2018-03-12T13:01:51.088Z,2.80
2018-03-12T13:04:25.539Z,5.00
2018-03-12T13:05:24.927Z,4.80
2018-03-12T13:07:24.396Z,3.10
2018-03-12T13:08:24.369Z,4.20
2018-03-12T13:10:25.148Z,2.30
2018-03-12T13:11:26.860Z,3.40
2018-03-12T13:13:30.252Z,4.40
2018-03-12T13:14:44.764Z,4.20
2018-03-12T13:16:29.215Z,4.60
2018-03-12T13:17:29.773Z,3.50
2018-03-12T13:19:27.136Z,3.00
2018-03-12T13:20:26.744Z,4.30
2018-03-12T13:22:24.805Z,4.50
2018-03-12T13:23:24.803Z,4.70
2018-03-12T13:25:20.797Z,4.30
2018-03-12T13:26:20.805Z,2.80
2018-03-12T13:28:18.812Z,5.60
2018-03-12T13:29:18.821Z,4.10
2018-03-12T13:31:14.827Z,3.80
2018-03-12T13:32:15.264Z,4.00
2018-03-12T13:34:10.694Z,3.80
2018-03-12T13:36:27.661Z,5.00
2018-03-12T13:37:26.638Z,6.20
2018-03-12T13:39:25.115Z,6.40
2018-03-12T13:40:24.611Z,4.50
2018-03-12T13:42:21.074Z,6.70
2018-03-12T13:43:20.554Z,4.40
2018-03-12T13:45:18.064Z,4.20
2018-03-12T13:46:16.516Z,4.60
2018-03-12T13:48:15.517Z,10.40
2018-03-12T13:49:14.557Z,10.30
2018-03-12T13:51:11.522Z,7.60
2018-03-12T13:52:11.543Z,9.20
2018-03-12T13:54:07.577Z,6.10
2018-03-12T13:55:07.503Z,6.10
2018-03-12T13:57:03.475Z,12.80
2018-03-12T13:58:03.488Z,6.70
2018-03-12T14:00:01.943Z,4.20
2018-03-12T14:01:01.438Z,5.80
2018-03-12T14:03:00.367Z,6.70
2018-03-12T14:03:59.365Z,6.30
2018-03-12T14:05:55.813Z,6.10
2018-03-12T14:06:55.343Z,7.90
2018-03-12T14:08:51.767Z,5.00
2018-03-12T14:09:51.309Z,3.70
2018-03-12T14:11:48.194Z,5.30
2018-03-12T14:12:47.212Z,9.10
2018-03-12T14:14:43.197Z,6.20
2018-03-12T14:15:44.168Z,6.70
2018-03-12T14:17:39.118Z,5.40
2018-03-12T14:18:39.122Z,9.70
2018-03-12T14:20:37.073Z,5.10
2018-03-12T14:21:37.107Z,6.00
2018-03-12T14:23:35.560Z,6.20
2018-03-12T14:24:35.021Z,5.80
2018-03-12T14:26:30.987Z,7.30
2018-03-12T14:27:31.006Z,8.70
2018-03-12T14:29:26.981Z,5.40
2018-03-12T14:30:27.964Z,6.70
2018-03-12T14:32:23.942Z,8.50
2018-03-12T14:33:24.429Z,7.30
2018-03-12T14:35:20.384Z,5.80
2018-03-12T14:37:34.880Z,4.30
2018-03-12T14:38:34.849Z,3.30
2018-03-12T14:40:31.845Z,4.50
2018-03-12T14:42:47.753Z,4.30
2018-03-12T14:43:48.287Z,4.40
2018-03-12T14:45:43.729Z,2.90
2018-03-12T14:47:59.712Z,3.20
2018-03-12T14:50:25.643Z,3.70
2018-03-12T14:52:42.106Z,3.40
2018-03-12T14:53:43.125Z,3.70
2018-03-12T14:55:45.539Z,4.40
2018-03-12T14:56:47.042Z,2.70
2018-03-12T14:59:35.583Z,5.70
2018-03-12T15:00:37.495Z,10.70
2018-03-12T15:02:33.676Z,9.30
2018-03-12T15:03:33.683Z,6.40
2018-03-12T15:05:29.658Z,4.80
2018-03-12T15:06:30.140Z,4.40
2018-03-12T15:08:25.628Z,5.10
2018-03-12T15:09:25.535Z,3.50
2018-03-12T15:11:23.508Z,2.30
2018-03-12T15:12:23.479Z,2.70
2018-03-12T15:14:21.970Z,10.40
2018-03-12T15:15:21.545Z,4.60
2018-03-12T15:17:21.563Z,2.60
2018-03-12T15:18:22.497Z,4.00
2018-03-12T15:20:15.698Z,4.20
2018-03-12T15:21:16.151Z,4.60
2018-03-12T15:23:13.760Z,5.50
2018-03-12T15:24:20.619Z,4.60
2018-03-12T15:26:24.219Z,5.10
2018-03-12T15:27:23.716Z,4.90
2018-03-12T15:29:19.185Z,2.70
2018-03-12T15:30:19.189Z,3.80
2018-03-12T15:32:15.622Z,2.60
2018-03-12T15:33:14.662Z,3.70
2018-03-12T15:35:10.624Z,1.50
2018-03-12T15:36:12.108Z,1.60
2018-03-12T15:38:07.083Z,2.50
2018-03-12T15:39:06.557Z,2.70
2018-03-12T15:41:04.596Z,2.10
2018-03-12T15:42:05.538Z,2.20
2018-03-12T15:44:02.088Z,1.80
2018-03-12T15:45:02.095Z,3.10
2018-03-12T15:47:00.054Z,2.50
2018-03-12T15:48:00.019Z,2.30
2018-03-12T15:49:54.977Z,4.00
2018-03-12T15:50:55.978Z,3.90
2018-03-12T15:52:52.926Z,2.50
2018-03-12T15:53:52.931Z,2.00
2018-03-12T15:55:48.421Z,2.50
2018-03-12T15:56:48.363Z,3.30
2018-03-12T15:58:46.477Z,2.10
2018-03-12T15:59:47.339Z,3.10
2018-03-12T16:01:43.275Z,2.10
2018-03-12T16:02:43.372Z,2.30
2018-03-12T16:04:38.844Z,1.90
2018-03-12T16:05:39.308Z,2.30
2018-03-12T16:07:34.263Z,2.50
2018-03-12T16:08:34.264Z,2.00
2018-03-12T16:10:33.235Z,1.90
2018-03-12T16:11:32.344Z,2.40
2018-03-12T16:13:30.804Z,4.30
2018-03-12T16:14:30.794Z,2.60
2018-03-12T16:16:28.749Z,1.70
2018-03-12T16:17:29.230Z,2.10
2018-03-12T16:19:26.410Z,14.20
2018-03-12T16:20:26.386Z,11.40
2018-03-12T16:22:22.322Z,3.90
2018-03-12T16:23:22.354Z,3.00
2018-03-12T16:25:19.286Z,3.40
2018-03-12T16:26:18.285Z,3.30
2018-03-12T16:28:14.256Z,3.10
2018-03-12T16:29:14.183Z,2.80
2018-03-12T16:31:12.662Z,2.80
2018-03-12T16:32:12.249Z,2.30
2018-03-12T16:34:10.708Z,2.00
2018-03-12T16:35:10.229Z,2.20
2018-03-12T16:37:08.174Z,3.30
2018-03-12T16:38:08.164Z,2.30
2018-03-12T16:40:07.537Z,2.90
2018-03-12T16:41:07.104Z,2.20
2018-03-12T16:43:02.169Z,3.20
2018-03-12T16:44:02.160Z,2.10
2018-03-12T16:45:58.128Z,2.30
2018-03-12T16:46:59.625Z,2.10
2018-03-12T16:48:55.590Z,3.80
2018-03-12T16:49:55.576Z,2.80
2018-03-12T16:52:00.464Z,2.00
2018-03-12T16:52:58.548Z,3.10
2018-03-12T16:54:54.397Z,2.20
2018-03-12T16:55:54.404Z,2.20
2018-03-12T16:57:50.374Z,1.70
2018-03-12T16:58:50.357Z,2.50
2018-03-12T17:00:48.862Z,2.50
2018-03-12T17:01:48.320Z,1.60
2018-03-12T17:03:44.803Z,4.60
2018-03-12T17:04:44.243Z,2.00
2018-03-12T17:06:42.218Z,2.10
2018-03-12T17:07:42.212Z,1.70
2018-03-12T17:09:43.664Z,2.50
2018-03-12T17:10:49.175Z,2.60
2018-03-12T17:12:41.589Z,3.10
2018-03-12T17:13:40.587Z,3.60
2018-03-12T17:15:40.051Z,2.70
2018-03-12T17:16:40.055Z,4.50
2018-03-12T17:18:36.989Z,3.20
2018-03-12T17:19:37.019Z,3.00
2018-03-12T17:21:36.960Z,3.30
2018-03-12T17:22:34.403Z,2.40
2018-03-12T17:24:33.883Z,2.30
2018-03-12T17:25:33.370Z,3.80
2018-03-12T17:27:30.838Z,3.80
2018-03-12T17:28:32.368Z,2.60
2018-03-12T17:30:30.931Z,4.30
2018-03-12T17:31:31.391Z,4.90
2018-03-12T17:33:29.353Z,3.40
2018-03-12T17:34:28.855Z,3.60
2018-03-12T17:36:26.924Z,3.40
2018-03-12T17:37:26.927Z,2.90
2018-03-12T17:39:31.898Z,4.00
2018-03-12T17:40:33.883Z,4.10
2018-03-12T17:42:27.385Z,4.90
2018-03-12T17:44:47.765Z,5.60
2018-03-12T17:45:49.332Z,3.60
2018-03-12T17:47:46.259Z,4.50
2018-03-12T17:48:45.738Z,4.60
2018-03-12T17:50:44.253Z,5.80
2018-03-12T17:51:43.718Z,6.10
2018-03-12T17:53:42.658Z,3.60
2018-03-12T17:54:42.165Z,3.00
2018-03-12T17:56:48.180Z,2.80
2018-03-12T17:57:43.654Z,3.00
2018-03-12T17:59:46.067Z,4.70
2018-03-12T18:00:44.560Z,6.10
2018-03-12T18:02:51.040Z,3.30
2018-03-12T18:05:05.997Z,5.30
2018-03-12T18:06:04.966Z,4.60
2018-03-12T18:08:02.413Z,6.50
2018-03-12T18:09:06.405Z,4.30
2018-03-12T18:11:06.519Z,4.50
2018-03-12T18:12:06.467Z,7.50
2018-03-12T18:14:15.005Z,4.30
2018-03-12T18:15:19.514Z,4.20
2018-03-12T18:17:14.950Z,6.00
2018-03-12T18:18:19.439Z,6.00
2018-03-12T18:20:15.942Z,5.60
2018-03-12T18:21:15.870Z,4.00
2018-03-12T18:23:15.837Z,5.20
2018-03-12T18:24:15.821Z,5.80
2018-03-12T18:26:16.746Z,5.10
2018-03-12T18:27:17.281Z,4.20
2018-03-12T18:29:14.295Z,8.40
2018-03-12T18:30:14.198Z,6.60
2018-03-12T18:32:15.151Z,3.90
2018-03-12T18:33:15.682Z,4.70
2018-03-12T18:35:15.218Z,5.20
2018-03-12T18:36:15.136Z,4.00
2018-03-12T18:38:16.070Z,5.50
2018-03-12T18:39:15.544Z,7.20
2018-03-12T18:41:16.052Z,7.20
2018-03-12T18:42:16.092Z,6.50
2018-03-12T18:44:17.499Z,8.00
2018-03-12T18:45:16.445Z,6.00
2018-03-12T18:47:16.974Z,5.00
2018-03-12T18:48:17.217Z,5.50
2018-03-12T18:50:17.385Z,6.00
2018-03-12T18:51:17.455Z,3.40
2018-03-12T18:53:15.168Z,4.30
2018-03-12T18:54:15.671Z,3.90
2018-03-12T18:56:17.321Z,3.60
2018-03-12T18:57:15.449Z,5.00
2018-03-12T18:59:21.460Z,3.80
2018-03-12T19:00:20.920Z,4.20
2018-03-12T19:02:21.813Z,2.60
2018-03-12T19:03:21.819Z,5.90
2018-03-12T19:05:22.948Z,4.20
2018-03-12T19:06:22.834Z,3.80
2018-03-12T19:08:23.274Z,4.00
2018-03-12T19:09:23.216Z,3.90
2018-03-12T19:11:23.686Z,4.90
2018-03-12T19:12:23.708Z,6.30
2018-03-12T19:14:26.077Z,4.20
2018-03-12T19:15:25.094Z,6.70
2018-03-12T19:17:28.202Z,4.10
2018-03-12T19:18:29.096Z,5.00
2018-03-12T19:20:30.596Z,4.50
2018-03-12T19:21:30.040Z,4.50
2018-03-12T19:23:30.444Z,3.40
2018-03-12T19:24:30.943Z,3.10
2018-03-12T19:26:28.129Z,3.20
2018-03-12T19:27:29.891Z,3.20
2018-03-12T19:29:31.492Z,5.40
2018-03-12T19:30:31.986Z,9.20
2018-03-12T19:32:31.128Z,4.50
2018-03-12T19:33:30.616Z,5.90
2018-03-12T19:35:31.617Z,5.10
2018-03-12T19:37:46.972Z,5.40
2018-03-12T19:38:46.991Z,5.10
2018-03-12T19:40:48.434Z,4.40
2018-03-12T19:41:47.395Z,4.90